Meteo Giornale » Osservazioni meteo Italia » Falconara

ore: 11:20 - Osservazioni Meteo Falconara
Lat. 43° 37' N Lon. 13° 22' E Alt. 12 metri s.l.m.

molto_nuvoloso Europe/Rome

30 °C

Molto Nuvoloso

Temp. 24 Ore

21 °C

31 °C

Nord-Est

13 Km/h

Dew point 21 °C

Umidità 58 %

Visibilità  10 Km

Il sole sorge alle ore 05:57

Il sole tramonta alle ore 20:27

Data e Ora Cielo e Fenomeni T °C DP °C Um. % Pres. hPa Vis. km Vento km/h
Oggi h: 11:20 molto_nuvoloso Molto Nuvoloso 30 21 58 1006 10 NE 13
Oggi h: 10:50 molto_nuvoloso Molto Nuvoloso 30 21 58 1006 10 E/NE 13
Oggi h: 10:20 nuvoloso Nuvoloso 30 22 62 1006 10 NE 13
Oggi h: 09:50 molto_nuvoloso Molto Nuvoloso 29 21 62 1006 10 N 5.5
Oggi h: 09:20 molto_nuvoloso Molto Nuvoloso 29 21 62 1006 10 N 11.1
Oggi h: 08:50 sereno Sereno 29 21 62 1006 10 N/NO 9.3
Oggi h: 08:20 sereno Sereno 28 21 65 1006 10 N 5.5
Oggi h: 07:50 sereno Sereno 26 21 73 1006 10 N 1.8
Oggi h: 07:20 sereno Sereno 24 22 88 1007 10 N 3.7
Oggi h: 06:50 sereno Sereno 22 21 94 1007 10 N 3.7
Oggi h: 06:20 sereno Sereno 22 20 88 1006 10 S 7.4
Oggi h: 05:50 sereno Sereno 21 20 94 1007 10 N 5.5
Oggi h: 04:50 sereno Sereno 22 21 94 1006 10 N 5.5
Oggi h: 04:20 sereno Sereno 22 20 88 1006 10 N 5.5
Oggi h: 03:50 sereno Sereno 22 21 94 1006 10 SO 7.4
Oggi h: 03:20 poco_nuvoloso Poco Nuvoloso 23 21 88 1006 10 N 5.5
Oggi h: 02:50 nuvoloso Nuvoloso 23 21 88 1007 10 S 7.4
Oggi h: 02:20 poco_nuvoloso Poco Nuvoloso 23 21 88 1007 10 N 3.7
Oggi h: 01:50 sereno Sereno 23 21 88 1007 10 N 5.5
Oggi h: 01:20 sereno Sereno 24 21 83 1007 10 N 3.7
Oggi h: 00:50 sereno Sereno 24 22 88 1007 10 N 5.5
Oggi h: 00:20 sereno Sereno 25 22 83 1007 10 N 5.5
Ieri h: 23:50 poco_nuvoloso Poco Nuvoloso 25 22 83 1007 10 N 3.7
Ieri h: 23:20 sereno Sereno 25 23 88 1008 10 N 3.7
Ieri h: 22:50 sereno Sereno 25 23 88 1007 10 N 5.5
Ieri h: 22:20 sereno Sereno 25 23 88 1007 10 N 3.7
Ieri h: 21:50 sereno Sereno 27 23 78 1007 10 N 3.7
Ieri h: 21:20 sereno Sereno 27 24 83 1008 10 N 5.5
Ieri h: 20:50 sereno Sereno 27 23 78 1007 10 N 5.5
Ieri h: 20:20 sereno Sereno 27 24 83 1008 10 N 5.5
Ieri h: 19:20 sereno Sereno 28 24 78 1008 10 N 5.5
Ieri h: 18:50 sereno Sereno 29 23 70 1008 10 N 3.7
Ieri h: 18:20 sereno Sereno 29 23 70 1008 10 N 5.5
Ieri h: 17:50 nuvoloso Nuvoloso 29 24 74 1009 10 N/NO 13
Ieri h: 17:20 coperto_pioggia Pioggia Debole 28 24 78 1009 10 N/NO 18.5
Ieri h: 16:50 coperto_temporali Temporale 28 23 74 1010 10 O 14.8
Ieri h: 16:20 molto_nuvoloso Molto Nuvoloso 29 22 66 1010 10 N/NE 13
Ieri h: 15:50 poco_nuvoloso Poco Nuvoloso 30 21 58 1009 10 E/NE 18.5
Ieri h: 15:20 poco_nuvoloso Poco Nuvoloso 31 23 62 1009 10 NE 24
Ieri h: 14:50 sereno Sereno 31 21 55 1009 10 NE 24
Ieri h: 14:20 sereno Sereno 31 23 62 1009 10 NE 24
Ieri h: 13:20 poco_nuvoloso Poco Nuvoloso 31 21 55 1010 10 NE 22.2
Ieri h: 12:50 sereno Sereno 30 24 70 1010 10 NE 24
Ieri h: 12:20 sereno Sereno 30 24 70 1010 10 NE 18.5
Ieri h: 11:50 sereno Sereno 30 24 70 1010 10 N 14.8